sensor_id;sensor_type;location;lat;lon;timestamp;temperature;humidity
1137;DHT22;557;48.466;7.950;2022-07-11T00:00:51;14.60;1.00
1137;DHT22;557;48.466;7.950;2022-07-11T00:03:36;14.70;1.00
1137;DHT22;557;48.466;7.950;2022-07-11T00:06:22;14.70;1.00
1137;DHT22;557;48.466;7.950;2022-07-11T00:09:09;14.70;1.00
1137;DHT22;557;48.466;7.950;2022-07-11T00:11:54;14.80;1.00
1137;DHT22;557;48.466;7.950;2022-07-11T00:14:41;14.90;1.00
1137;DHT22;557;48.466;7.950;2022-07-11T00:17:26;14.80;1.00
1137;DHT22;557;48.466;7.950;2022-07-11T00:20:12;14.80;1.00
1137;DHT22;557;48.466;7.950;2022-07-11T00:22:58;14.70;1.00
1137;DHT22;557;48.466;7.950;2022-07-11T00:25:45;14.60;1.00
1137;DHT22;557;48.466;7.950;2022-07-11T00:28:32;14.60;1.00
1137;DHT22;557;48.466;7.950;2022-07-11T00:31:17;14.50;1.00
1137;DHT22;557;48.466;7.950;2022-07-11T00:34:03;14.50;1.00
1137;DHT22;557;48.466;7.950;2022-07-11T00:36:49;14.30;1.00
1137;DHT22;557;48.466;7.950;2022-07-11T00:39:35;14.20;1.00
1137;DHT22;557;48.466;7.950;2022-07-11T00:42:22;14.10;1.00
1137;DHT22;557;48.466;7.950;2022-07-11T00:45:08;14.10;11.70
1137;DHT22;557;48.466;7.950;2022-07-11T00:47:54;14.10;23.90
1137;DHT22;557;48.466;7.950;2022-07-11T00:50:41;14.00;1.00
1137;DHT22;557;48.466;7.950;2022-07-11T00:53:27;14.00;17.10
1137;DHT22;557;48.466;7.950;2022-07-11T00:56:13;14.00;21.70
1137;DHT22;557;48.466;7.950;2022-07-11T00:59:01;14.00;26.30
1137;DHT22;557;48.466;7.950;2022-07-11T01:01:47;13.90;11.70
1137;DHT22;557;48.466;7.950;2022-07-11T01:04:33;13.80;1.00
1137;DHT22;557;48.466;7.950;2022-07-11T01:07:19;13.90;1.00
1137;DHT22;557;48.466;7.950;2022-07-11T01:10:06;13.90;1.00
1137;DHT22;557;48.466;7.950;2022-07-11T01:12:52;13.90;1.00
1137;DHT22;557;48.466;7.950;2022-07-11T01:15:40;14.00;1.00
1137;DHT22;557;48.466;7.950;2022-07-11T01:18:26;14.00;1.00
1137;DHT22;557;48.466;7.950;2022-07-11T01:21:28;14.00;1.00
1137;DHT22;557;48.466;7.950;2022-07-11T01:24:15;14.00;1.00
1137;DHT22;557;48.466;7.950;2022-07-11T01:27:01;13.90;3.10
1137;DHT22;557;48.466;7.950;2022-07-11T01:29:47;13.90;5.60
1137;DHT22;557;48.466;7.950;2022-07-11T01:32:32;13.80;1.00
1137;DHT22;557;48.466;7.950;2022-07-11T01:35:18;13.80;1.00
1137;DHT22;557;48.466;7.950;2022-07-11T01:38:04;13.80;1.00
1137;DHT22;557;48.466;7.950;2022-07-11T01:40:51;13.80;1.00
1137;DHT22;557;48.466;7.950;2022-07-11T01:43:37;13.80;1.00
1137;DHT22;557;48.466;7.950;2022-07-11T01:46:23;13.80;1.00
1137;DHT22;557;48.466;7.950;2022-07-11T01:49:08;13.70;8.80
1137;DHT22;557;48.466;7.950;2022-07-11T01:51:54;13.70;19.80
1137;DHT22;557;48.466;7.950;2022-07-11T01:54:39;13.60;1.00
1137;DHT22;557;48.466;7.950;2022-07-11T01:57:26;13.60;3.60
1137;DHT22;557;48.466;7.950;2022-07-11T02:00:13;13.50;21.70
1137;DHT22;557;48.466;7.950;2022-07-11T02:02:58;13.50;7.10
1137;DHT22;557;48.466;7.950;2022-07-11T02:05:44;13.50;17.40
1137;DHT22;557;48.466;7.950;2022-07-11T02:08:29;13.50;14.90
1137;DHT22;557;48.466;7.950;2022-07-11T02:11:15;13.50;1.00
1137;DHT22;557;48.466;7.950;2022-07-11T02:14:02;13.60;1.00
1137;DHT22;557;48.466;7.950;2022-07-11T02:16:48;13.70;1.00
1137;DHT22;557;48.466;7.950;2022-07-11T02:19:34;13.70;16.10
1137;DHT22;557;48.466;7.950;2022-07-11T02:22:19;13.50;9.10
1137;DHT22;557;48.466;7.950;2022-07-11T02:25:06;13.50;25.50
1137;DHT22;557;48.466;7.950;2022-07-11T02:27:52;13.40;29.00
1137;DHT22;557;48.466;7.950;2022-07-11T02:30:41;13.30;12.40
1137;DHT22;557;48.466;7.950;2022-07-11T02:33:26;13.30;58.00
1137;DHT22;557;48.466;7.950;2022-07-11T02:36:12;13.30;51.20
1137;DHT22;557;48.466;7.950;2022-07-11T02:38:58;13.30;52.10
1137;DHT22;557;48.466;7.950;2022-07-11T02:41:43;13.30;58.90
1137;DHT22;557;48.466;7.950;2022-07-11T02:44:34;13.30;58.20
1137;DHT22;557;48.466;7.950;2022-07-11T02:47:22;13.30;38.30
1137;DHT22;557;48.466;7.950;2022-07-11T02:50:09;13.30;10.20
1137;DHT22;557;48.466;7.950;2022-07-11T02:52:56;13.40;15.60
1137;DHT22;557;48.466;7.950;2022-07-11T02:55:41;13.40;6.20
1137;DHT22;557;48.466;7.950;2022-07-11T02:58:27;13.40;1.00
1137;DHT22;557;48.466;7.950;2022-07-11T03:01:12;13.50;1.00
1137;DHT22;557;48.466;7.950;2022-07-11T03:03:59;13.50;1.00
1137;DHT22;557;48.466;7.950;2022-07-11T03:06:44;13.50;4.00
1137;DHT22;557;48.466;7.950;2022-07-11T03:09:30;13.40;1.00
1137;DHT22;557;48.466;7.950;2022-07-11T03:12:15;13.30;13.40
1137;DHT22;557;48.466;7.950;2022-07-11T03:15:01;13.30;25.00
1137;DHT22;557;48.466;7.950;2022-07-11T03:17:54;13.20;42.50
1137;DHT22;557;48.466;7.950;2022-07-11T03:20:41;13.20;46.80
1137;DHT22;557;48.466;7.950;2022-07-11T03:23:26;13.10;35.10
1137;DHT22;557;48.466;7.950;2022-07-11T03:26:12;13.10;31.90
1137;DHT22;557;48.466;7.950;2022-07-11T03:28:58;13.10;44.40
1137;DHT22;557;48.466;7.950;2022-07-11T03:31:44;13.00;58.10
1137;DHT22;557;48.466;7.950;2022-07-11T03:34:30;12.90;26.40
1137;DHT22;557;48.466;7.950;2022-07-11T03:37:17;12.90;43.00
1137;DHT22;557;48.466;7.950;2022-07-11T03:40:04;12.90;70.70
1137;DHT22;557;48.466;7.950;2022-07-11T03:42:50;12.90;68.80
1137;DHT22;557;48.466;7.950;2022-07-11T03:45:35;12.90;63.00
1137;DHT22;557;48.466;7.950;2022-07-11T03:48:24;12.90;73.50
1137;DHT22;557;48.466;7.950;2022-07-11T03:51:10;12.90;51.00
1137;DHT22;557;48.466;7.950;2022-07-11T03:53:57;12.80;59.00
1137;DHT22;557;48.466;7.950;2022-07-11T03:56:43;12.80;56.20
1137;DHT22;557;48.466;7.950;2022-07-11T03:59:28;12.80;91.70
1137;DHT22;557;48.466;7.950;2022-07-11T04:02:14;12.90;84.00
1137;DHT22;557;48.466;7.950;2022-07-11T04:05:00;12.90;86.90
1137;DHT22;557;48.466;7.950;2022-07-11T04:07:45;12.90;83.10
1137;DHT22;557;48.466;7.950;2022-07-11T04:10:32;12.90;90.00
1137;DHT22;557;48.466;7.950;2022-07-11T04:13:18;13.00;70.20
1137;DHT22;557;48.466;7.950;2022-07-11T04:16:04;12.90;67.50
1137;DHT22;557;48.466;7.950;2022-07-11T04:18:50;13.10;50.10
1137;DHT22;557;48.466;7.950;2022-07-11T04:21:35;13.20;48.00
1137;DHT22;557;48.466;7.950;2022-07-11T04:24:21;13.30;37.30
1137;DHT22;557;48.466;7.950;2022-07-11T04:27:08;13.40;26.30
1137;DHT22;557;48.466;7.950;2022-07-11T04:29:54;13.40;30.20
1137;DHT22;557;48.466;7.950;2022-07-11T04:32:39;13.40;49.10
1137;DHT22;557;48.466;7.950;2022-07-11T04:35:25;13.40;26.50
1137;DHT22;557;48.466;7.950;2022-07-11T04:38:12;13.30;25.60
1137;DHT22;557;48.466;7.950;2022-07-11T04:40:57;13.40;52.60
1137;DHT22;557;48.466;7.950;2022-07-11T04:43:44;13.40;44.30
1137;DHT22;557;48.466;7.950;2022-07-11T04:46:30;13.50;69.80
1137;DHT22;557;48.466;7.950;2022-07-11T04:49:16;13.60;70.20
1137;DHT22;557;48.466;7.950;2022-07-11T04:52:02;13.70;42.50
1137;DHT22;557;48.466;7.950;2022-07-11T04:54:48;13.80;74.40
1137;DHT22;557;48.466;7.950;2022-07-11T04:57:34;14.00;26.60
1137;DHT22;557;48.466;7.950;2022-07-11T05:00:21;14.20;23.80
1137;DHT22;557;48.466;7.950;2022-07-11T05:03:07;14.40;42.80
1137;DHT22;557;48.466;7.950;2022-07-11T05:05:52;14.60;24.80
1137;DHT22;557;48.466;7.950;2022-07-11T05:08:38;14.90;1.00
1137;DHT22;557;48.466;7.950;2022-07-11T05:11:23;15.10;1.00
1137;DHT22;557;48.466;7.950;2022-07-11T05:14:10;15.20;1.00
1137;DHT22;557;48.466;7.950;2022-07-11T05:16:57;15.40;1.00
1137;DHT22;557;48.466;7.950;2022-07-11T05:19:43;15.50;1.00
1137;DHT22;557;48.466;7.950;2022-07-11T05:22:29;15.60;1.00
1137;DHT22;557;48.466;7.950;2022-07-11T05:25:15;15.80;1.00
1137;DHT22;557;48.466;7.950;2022-07-11T05:28:00;15.90;1.00
1137;DHT22;557;48.466;7.950;2022-07-11T05:30:46;16.10;1.00
1137;DHT22;557;48.466;7.950;2022-07-11T05:33:33;16.20;1.00
1137;DHT22;557;48.466;7.950;2022-07-11T05:36:19;16.30;1.00
1137;DHT22;557;48.466;7.950;2022-07-11T05:39:05;16.50;99.90
1137;DHT22;557;48.466;7.950;2022-07-11T05:41:51;16.60;99.90
1137;DHT22;557;48.466;7.950;2022-07-11T05:44:37;16.70;16.20
1137;DHT22;557;48.466;7.950;2022-07-11T05:47:22;16.80;99.90
1137;DHT22;557;48.466;7.950;2022-07-11T05:50:09;17.00;99.90
1137;DHT22;557;48.466;7.950;2022-07-11T05:52:55;16.90;1.00
1137;DHT22;557;48.466;7.950;2022-07-11T05:55:43;16.90;1.00
1137;DHT22;557;48.466;7.950;2022-07-11T05:58:28;17.10;1.00
1137;DHT22;557;48.466;7.950;2022-07-11T06:01:14;17.20;99.90
1137;DHT22;557;48.466;7.950;2022-07-11T06:04:00;17.20;1.00
1137;DHT22;557;48.466;7.950;2022-07-11T06:06:47;17.40;61.70
1137;DHT22;557;48.466;7.950;2022-07-11T06:09:33;17.40;1.00
1137;DHT22;557;48.466;7.950;2022-07-11T06:12:17;17.40;1.00
1137;DHT22;557;48.466;7.950;2022-07-11T06:15:05;17.50;1.00
1137;DHT22;557;48.466;7.950;2022-07-11T06:17:50;17.60;99.90
1137;DHT22;557;48.466;7.950;2022-07-11T06:20:36;17.70;1.00
1137;DHT22;557;48.466;7.950;2022-07-11T06:23:23;17.80;1.00
1137;DHT22;557;48.466;7.950;2022-07-11T06:26:09;17.90;13.20
1137;DHT22;557;48.466;7.950;2022-07-11T06:28:55;18.00;58.10
1137;DHT22;557;48.466;7.950;2022-07-11T06:31:41;18.00;1.00
1137;DHT22;557;48.466;7.950;2022-07-11T06:34:27;18.00;1.00
1137;DHT22;557;48.466;7.950;2022-07-11T06:37:13;18.00;1.00
1137;DHT22;557;48.466;7.950;2022-07-11T06:40:00;17.90;1.00
1137;DHT22;557;48.466;7.950;2022-07-11T06:42:46;18.10;1.00
1137;DHT22;557;48.466;7.950;2022-07-11T06:45:31;18.30;99.90
1137;DHT22;557;48.466;7.950;2022-07-11T06:48:17;18.50;99.90
1137;DHT22;557;48.466;7.950;2022-07-11T06:51:05;18.70;99.50
1137;DHT22;557;48.466;7.950;2022-07-11T06:53:51;18.80;1.00
1137;DHT22;557;48.466;7.950;2022-07-11T06:56:39;19.00;1.00
1137;DHT22;557;48.466;7.950;2022-07-11T06:59:35;19.10;1.00
1137;DHT22;557;48.466;7.950;2022-07-11T07:02:21;19.20;99.90
1137;DHT22;557;48.466;7.950;2022-07-11T07:05:12;19.40;99.90
1137;DHT22;557;48.466;7.950;2022-07-11T07:07:58;19.40;1.00
1137;DHT22;557;48.466;7.950;2022-07-11T07:10:44;19.20;99.90
1137;DHT22;557;48.466;7.950;2022-07-11T07:13:31;19.40;99.90
1137;DHT22;557;48.466;7.950;2022-07-11T07:16:17;19.50;99.90
1137;DHT22;557;48.466;7.950;2022-07-11T07:19:03;19.80;99.90
1137;DHT22;557;48.466;7.950;2022-07-11T07:21:49;20.10;1.00
1137;DHT22;557;48.466;7.950;2022-07-11T07:24:35;20.20;1.00
1137;DHT22;557;48.466;7.950;2022-07-11T07:27:21;20.50;1.00
1137;DHT22;557;48.466;7.950;2022-07-11T07:30:10;20.60;1.00
1137;DHT22;557;48.466;7.950;2022-07-11T07:32:55;20.80;1.00
1137;DHT22;557;48.466;7.950;2022-07-11T07:35:41;20.90;1.00
1137;DHT22;557;48.466;7.950;2022-07-11T07:38:27;21.10;1.00
1137;DHT22;557;48.466;7.950;2022-07-11T07:41:13;21.10;1.00
1137;DHT22;557;48.466;7.950;2022-07-11T07:43:59;21.30;1.00
1137;DHT22;557;48.466;7.950;2022-07-11T07:46:47;21.60;1.00
1137;DHT22;557;48.466;7.950;2022-07-11T07:49:33;21.90;99.90
1137;DHT22;557;48.466;7.950;2022-07-11T07:52:19;22.20;99.90
1137;DHT22;557;48.466;7.950;2022-07-11T07:55:06;22.40;99.90
1137;DHT22;557;48.466;7.950;2022-07-11T07:57:52;22.60;99.90
1137;DHT22;557;48.466;7.950;2022-07-11T08:00:38;22.80;99.90
1137;DHT22;557;48.466;7.950;2022-07-11T08:03:43;23.00;99.90
1137;DHT22;557;48.466;7.950;2022-07-11T08:06:29;23.20;99.90
1137;DHT22;557;48.466;7.950;2022-07-11T08:09:15;23.30;99.90
1137;DHT22;557;48.466;7.950;2022-07-11T08:12:00;23.50;99.90
1137;DHT22;557;48.466;7.950;2022-07-11T08:14:47;23.40;99.90
1137;DHT22;557;48.466;7.950;2022-07-11T08:17:33;23.50;99.90
1137;DHT22;557;48.466;7.950;2022-07-11T08:20:21;23.70;99.90
1137;DHT22;557;48.466;7.950;2022-07-11T08:23:07;23.70;99.90
1137;DHT22;557;48.466;7.950;2022-07-11T08:25:53;23.80;99.90
1137;DHT22;557;48.466;7.950;2022-07-11T08:28:38;24.10;99.90
1137;DHT22;557;48.466;7.950;2022-07-11T08:31:24;24.10;99.90
1137;DHT22;557;48.466;7.950;2022-07-11T08:34:10;24.30;99.90
1137;DHT22;557;48.466;7.950;2022-07-11T08:36:57;24.30;99.90
1137;DHT22;557;48.466;7.950;2022-07-11T08:39:43;24.40;99.90
1137;DHT22;557;48.466;7.950;2022-07-11T08:42:29;24.50;99.90
1137;DHT22;557;48.466;7.950;2022-07-11T08:45:16;24.30;99.90
1137;DHT22;557;48.466;7.950;2022-07-11T08:48:02;24.40;99.90
1137;DHT22;557;48.466;7.950;2022-07-11T08:50:49;24.50;99.90
1137;DHT22;557;48.466;7.950;2022-07-11T08:53:40;24.60;99.90
1137;DHT22;557;48.466;7.950;2022-07-11T08:56:28;24.70;99.90
1137;DHT22;557;48.466;7.950;2022-07-11T08:59:16;24.90;99.90
1137;DHT22;557;48.466;7.950;2022-07-11T09:02:06;25.00;99.90
1137;DHT22;557;48.466;7.950;2022-07-11T09:04:52;25.00;99.90
1137;DHT22;557;48.466;7.950;2022-07-11T09:07:42;25.10;99.90
1137;DHT22;557;48.466;7.950;2022-07-11T09:10:30;25.50;99.90
1137;DHT22;557;48.466;7.950;2022-07-11T09:13:16;25.50;99.90
1137;DHT22;557;48.466;7.950;2022-07-11T09:16:03;25.50;99.90
1137;DHT22;557;48.466;7.950;2022-07-11T09:18:49;25.60;99.90
1137;DHT22;557;48.466;7.950;2022-07-11T09:21:34;25.80;99.90
1137;DHT22;557;48.466;7.950;2022-07-11T09:24:38;25.70;99.90
1137;DHT22;557;48.466;7.950;2022-07-11T09:27:58;26.00;99.90
1137;DHT22;557;48.466;7.950;2022-07-11T09:30:48;26.20;99.90
1137;DHT22;557;48.466;7.950;2022-07-11T09:33:34;26.10;67.00
1137;DHT22;557;48.466;7.950;2022-07-11T09:36:33;26.10;69.40
1137;DHT22;557;48.466;7.950;2022-07-11T09:39:21;26.20;77.60
1137;DHT22;557;48.466;7.950;2022-07-11T09:42:07;26.40;63.00
1137;DHT22;557;48.466;7.950;2022-07-11T09:45:10;26.50;53.90
1137;DHT22;557;48.466;7.950;2022-07-11T09:47:58;26.30;52.10
1137;DHT22;557;48.466;7.950;2022-07-11T09:50:54;26.10;44.40
1137;DHT22;557;48.466;7.950;2022-07-11T09:53:53;26.20;43.20
1137;DHT22;557;48.466;7.950;2022-07-11T09:56:41;26.50;39.90
1137;DHT22;557;48.466;7.950;2022-07-11T09:59:28;26.70;37.00
1137;DHT22;557;48.466;7.950;2022-07-11T10:02:16;27.00;42.70
1137;DHT22;557;48.466;7.950;2022-07-11T10:05:04;27.10;34.80
1137;DHT22;557;48.466;7.950;2022-07-11T10:07:50;27.40;30.00
1137;DHT22;557;48.466;7.950;2022-07-11T10:10:36;27.30;27.50
1137;DHT22;557;48.466;7.950;2022-07-11T10:13:22;27.30;25.80
1137;DHT22;557;48.466;7.950;2022-07-11T10:16:14;27.10;20.00
1137;DHT22;557;48.466;7.950;2022-07-11T10:19:15;26.90;21.30
1137;DHT22;557;48.466;7.950;2022-07-11T10:22:09;26.90;21.40
1137;DHT22;557;48.466;7.950;2022-07-11T10:25:09;27.10;18.90
1137;DHT22;557;48.466;7.950;2022-07-11T10:28:06;27.10;16.80
1137;DHT22;557;48.466;7.950;2022-07-11T10:30:54;27.10;16.20
1137;DHT22;557;48.466;7.950;2022-07-11T10:34:00;27.40;15.50
1137;DHT22;557;48.466;7.950;2022-07-11T10:36:49;27.60;16.20
1137;DHT22;557;48.466;7.950;2022-07-11T10:39:36;27.80;12.80
1137;DHT22;557;48.466;7.950;2022-07-11T10:42:37;27.80;13.50
1137;DHT22;557;48.466;7.950;2022-07-11T10:45:24;28.10;11.60
1137;DHT22;557;48.466;7.950;2022-07-11T10:48:10;28.00;6.40
1137;DHT22;557;48.466;7.950;2022-07-11T10:51:20;27.90;6.70
1137;DHT22;557;48.466;7.950;2022-07-11T10:54:33;27.60;5.10
1137;DHT22;557;48.466;7.950;2022-07-11T10:57:28;27.50;3.50
1137;DHT22;557;48.466;7.950;2022-07-11T11:00:20;27.30;2.50
1137;DHT22;557;48.466;7.950;2022-07-11T11:03:07;27.10;1.00
1137;DHT22;557;48.466;7.950;2022-07-11T11:05:53;26.80;1.00
1137;DHT22;557;48.466;7.950;2022-07-11T11:08:45;27.00;3.20
1137;DHT22;557;48.466;7.950;2022-07-11T11:11:37;27.50;5.30
1137;DHT22;557;48.466;7.950;2022-07-11T11:14:24;27.90;3.80
1137;DHT22;557;48.466;7.950;2022-07-11T11:17:34;28.20;1.70
1137;DHT22;557;48.466;7.950;2022-07-11T11:20:30;28.30;2.20
1137;DHT22;557;48.466;7.950;2022-07-11T11:23:21;28.30;1.00
1137;DHT22;557;48.466;7.950;2022-07-11T11:26:10;28.30;1.50
1137;DHT22;557;48.466;7.950;2022-07-11T11:28:58;28.20;1.00
1137;DHT22;557;48.466;7.950;2022-07-11T11:31:49;28.20;1.00
1137;DHT22;557;48.466;7.950;2022-07-11T11:34:36;28.40;1.00
1137;DHT22;557;48.466;7.950;2022-07-11T11:37:22;28.60;1.00
1137;DHT22;557;48.466;7.950;2022-07-11T11:40:08;28.90;1.00
1137;DHT22;557;48.466;7.950;2022-07-11T11:42:54;29.20;1.00
1137;DHT22;557;48.466;7.950;2022-07-11T11:45:48;29.50;1.00
1137;DHT22;557;48.466;7.950;2022-07-11T11:48:36;29.50;1.00
1137;DHT22;557;48.466;7.950;2022-07-11T11:51:22;29.80;1.00
1137;DHT22;557;48.466;7.950;2022-07-11T11:54:08;29.90;1.00
1137;DHT22;557;48.466;7.950;2022-07-11T11:56:54;30.00;1.00
1137;DHT22;557;48.466;7.950;2022-07-11T11:59:43;30.10;1.00
1137;DHT22;557;48.466;7.950;2022-07-11T12:02:30;30.20;1.00
1137;DHT22;557;48.466;7.950;2022-07-11T12:05:16;30.30;1.00
1137;DHT22;557;48.466;7.950;2022-07-11T12:08:02;30.50;1.00
1137;DHT22;557;48.466;7.950;2022-07-11T12:10:53;30.80;1.00
1137;DHT22;557;48.466;7.950;2022-07-11T12:13:39;30.80;1.00
1137;DHT22;557;48.466;7.950;2022-07-11T12:16:26;30.80;1.00
1137;DHT22;557;48.466;7.950;2022-07-11T12:19:33;30.80;1.00
1137;DHT22;557;48.466;7.950;2022-07-11T12:22:22;30.80;1.00
1137;DHT22;557;48.466;7.950;2022-07-11T12:25:10;31.10;1.00
1137;DHT22;557;48.466;7.950;2022-07-11T12:27:56;30.90;1.00
1137;DHT22;557;48.466;7.950;2022-07-11T12:30:43;31.10;1.00
1137;DHT22;557;48.466;7.950;2022-07-11T12:33:29;31.30;1.00
1137;DHT22;557;48.466;7.950;2022-07-11T12:36:17;31.20;1.00
1137;DHT22;557;48.466;7.950;2022-07-11T12:39:08;30.90;1.00
1137;DHT22;557;48.466;7.950;2022-07-11T12:41:57;31.10;1.00
1137;DHT22;557;48.466;7.950;2022-07-11T12:44:55;31.40;1.00
1137;DHT22;557;48.466;7.950;2022-07-11T12:47:44;31.80;1.00
1137;DHT22;557;48.466;7.950;2022-07-11T12:50:30;31.80;1.00
1137;DHT22;557;48.466;7.950;2022-07-11T12:53:17;31.50;1.00
1137;DHT22;557;48.466;7.950;2022-07-11T12:56:04;31.70;1.00
1137;DHT22;557;48.466;7.950;2022-07-11T12:58:50;31.70;1.00
1137;DHT22;557;48.466;7.950;2022-07-11T13:01:36;31.60;1.00
1137;DHT22;557;48.466;7.950;2022-07-11T13:04:37;31.70;1.00
1137;DHT22;557;48.466;7.950;2022-07-11T13:07:24;31.80;1.00
1137;DHT22;557;48.466;7.950;2022-07-11T13:10:29;31.60;1.00
1137;DHT22;557;48.466;7.950;2022-07-11T13:13:34;31.90;1.00
1137;DHT22;557;48.466;7.950;2022-07-11T13:16:20;32.10;1.00
1137;DHT22;557;48.466;7.950;2022-07-11T13:19:06;32.10;1.00
1137;DHT22;557;48.466;7.950;2022-07-11T13:21:51;32.20;1.00
1137;DHT22;557;48.466;7.950;2022-07-11T13:24:37;32.10;1.00
1137;DHT22;557;48.466;7.950;2022-07-11T13:27:24;32.40;1.00
1137;DHT22;557;48.466;7.950;2022-07-11T13:30:11;32.50;1.00
1137;DHT22;557;48.466;7.950;2022-07-11T13:33:01;32.50;1.00
1137;DHT22;557;48.466;7.950;2022-07-11T13:35:46;32.40;1.00
1137;DHT22;557;48.466;7.950;2022-07-11T13:38:32;32.30;1.00
1137;DHT22;557;48.466;7.950;2022-07-11T13:41:18;32.10;1.00
1137;DHT22;557;48.466;7.950;2022-07-11T13:44:06;32.10;1.00
1137;DHT22;557;48.466;7.950;2022-07-11T13:46:51;32.00;1.00
1137;DHT22;557;48.466;7.950;2022-07-11T13:49:37;31.90;1.00
1137;DHT22;557;48.466;7.950;2022-07-11T13:52:23;31.90;1.00
1137;DHT22;557;48.466;7.950;2022-07-11T13:55:09;31.90;1.00
1137;DHT22;557;48.466;7.950;2022-07-11T13:57:55;31.80;1.00
1137;DHT22;557;48.466;7.950;2022-07-11T14:00:44;31.70;1.00
1137;DHT22;557;48.466;7.950;2022-07-11T14:03:30;31.80;1.00
1137;DHT22;557;48.466;7.950;2022-07-11T14:06:16;32.00;1.00
1137;DHT22;557;48.466;7.950;2022-07-11T14:09:01;32.00;1.00
1137;DHT22;557;48.466;7.950;2022-07-11T14:11:47;31.80;1.00
1137;DHT22;557;48.466;7.950;2022-07-11T14:14:32;31.50;1.00
1137;DHT22;557;48.466;7.950;2022-07-11T14:17:20;31.60;1.00
1137;DHT22;557;48.466;7.950;2022-07-11T14:20:06;31.60;1.00
1137;DHT22;557;48.466;7.950;2022-07-11T14:22:52;31.40;1.00
1137;DHT22;557;48.466;7.950;2022-07-11T14:25:40;31.20;1.00
1137;DHT22;557;48.466;7.950;2022-07-11T14:28:28;30.90;1.00
1137;DHT22;557;48.466;7.950;2022-07-11T14:31:13;31.00;1.00
1137;DHT22;557;48.466;7.950;2022-07-11T14:34:00;31.10;1.00
1137;DHT22;557;48.466;7.950;2022-07-11T14:36:47;30.90;1.00
1137;DHT22;557;48.466;7.950;2022-07-11T14:39:33;30.70;1.00
1137;DHT22;557;48.466;7.950;2022-07-11T14:42:19;30.40;1.00
1137;DHT22;557;48.466;7.950;2022-07-11T14:45:05;30.50;1.00
1137;DHT22;557;48.466;7.950;2022-07-11T14:47:52;30.80;1.00
1137;DHT22;557;48.466;7.950;2022-07-11T14:50:39;30.90;1.00
1137;DHT22;557;48.466;7.950;2022-07-11T14:53:25;31.10;1.00
1137;DHT22;557;48.466;7.950;2022-07-11T14:56:11;31.10;1.00
1137;DHT22;557;48.466;7.950;2022-07-11T14:58:56;31.20;1.00
1137;DHT22;557;48.466;7.950;2022-07-11T15:01:42;31.30;1.00
1137;DHT22;557;48.466;7.950;2022-07-11T15:04:28;31.10;1.00
1137;DHT22;557;48.466;7.950;2022-07-11T15:07:15;31.10;1.00
1137;DHT22;557;48.466;7.950;2022-07-11T15:10:18;31.10;1.00
1137;DHT22;557;48.466;7.950;2022-07-11T15:13:22;31.20;1.00
1137;DHT22;557;48.466;7.950;2022-07-11T15:16:07;31.10;1.00
1137;DHT22;557;48.466;7.950;2022-07-11T15:18:53;31.00;1.00
1137;DHT22;557;48.466;7.950;2022-07-11T15:21:39;30.90;1.00
1137;DHT22;557;48.466;7.950;2022-07-11T15:24:26;30.90;1.00
1137;DHT22;557;48.466;7.950;2022-07-11T15:27:15;30.90;1.00
1137;DHT22;557;48.466;7.950;2022-07-11T15:30:01;31.00;1.00
1137;DHT22;557;48.466;7.950;2022-07-11T15:32:48;31.00;1.00
1137;DHT22;557;48.466;7.950;2022-07-11T15:35:34;30.90;1.00
1137;DHT22;557;48.466;7.950;2022-07-11T15:38:20;31.10;1.00
1137;DHT22;557;48.466;7.950;2022-07-11T15:41:08;31.10;1.00
1137;DHT22;557;48.466;7.950;2022-07-11T15:43:54;31.30;1.00
1137;DHT22;557;48.466;7.950;2022-07-11T15:46:41;31.50;1.00
1137;DHT22;557;48.466;7.950;2022-07-11T15:49:27;31.60;1.00
1137;DHT22;557;48.466;7.950;2022-07-11T15:52:12;31.60;1.00
1137;DHT22;557;48.466;7.950;2022-07-11T15:54:58;31.30;1.00
1137;DHT22;557;48.466;7.950;2022-07-11T15:57:45;31.40;1.00
1137;DHT22;557;48.466;7.950;2022-07-11T16:00:30;31.50;1.00
1137;DHT22;557;48.466;7.950;2022-07-11T16:03:16;31.70;1.00
1137;DHT22;557;48.466;7.950;2022-07-11T16:06:02;32.30;1.00
1137;DHT22;557;48.466;7.950;2022-07-11T16:08:47;32.30;1.00
1137;DHT22;557;48.466;7.950;2022-07-11T16:11:33;32.10;1.00
1137;DHT22;557;48.466;7.950;2022-07-11T16:14:21;32.20;1.00
1137;DHT22;557;48.466;7.950;2022-07-11T16:17:06;31.70;1.00
1137;DHT22;557;48.466;7.950;2022-07-11T16:19:52;30.80;1.00
1137;DHT22;557;48.466;7.950;2022-07-11T16:22:38;30.40;1.00
1137;DHT22;557;48.466;7.950;2022-07-11T16:25:25;29.90;1.00
1137;DHT22;557;48.466;7.950;2022-07-11T16:28:12;29.60;1.00
1137;DHT22;557;48.466;7.950;2022-07-11T16:31:00;29.20;1.00
1137;DHT22;557;48.466;7.950;2022-07-11T16:33:45;28.90;1.00
1137;DHT22;557;48.466;7.950;2022-07-11T16:36:31;28.80;1.00
1137;DHT22;557;48.466;7.950;2022-07-11T16:39:17;28.70;1.00
1137;DHT22;557;48.466;7.950;2022-07-11T16:42:21;28.60;1.00
1137;DHT22;557;48.466;7.950;2022-07-11T16:45:24;28.60;1.00
1137;DHT22;557;48.466;7.950;2022-07-11T16:48:11;28.40;1.00
1137;DHT22;557;48.466;7.950;2022-07-11T16:50:58;28.20;1.00
1137;DHT22;557;48.466;7.950;2022-07-11T16:53:45;28.10;1.00
1137;DHT22;557;48.466;7.950;2022-07-11T16:56:30;28.00;1.00
1137;DHT22;557;48.466;7.950;2022-07-11T16:59:16;27.80;1.00
1137;DHT22;557;48.466;7.950;2022-07-11T17:02:02;27.60;1.00
1137;DHT22;557;48.466;7.950;2022-07-11T17:04:49;27.40;1.00
1137;DHT22;557;48.466;7.950;2022-07-11T17:07:35;27.40;1.00
1137;DHT22;557;48.466;7.950;2022-07-11T17:10:21;27.30;1.00
1137;DHT22;557;48.466;7.950;2022-07-11T17:13:07;27.30;1.00
1137;DHT22;557;48.466;7.950;2022-07-11T17:15:53;27.00;1.00
1137;DHT22;557;48.466;7.950;2022-07-11T17:18:39;26.90;1.00
1137;DHT22;557;48.466;7.950;2022-07-11T17:21:28;26.80;1.00
1137;DHT22;557;48.466;7.950;2022-07-11T17:24:14;26.70;1.00
1137;DHT22;557;48.466;7.950;2022-07-11T17:27:00;26.60;1.00
1137;DHT22;557;48.466;7.950;2022-07-11T17:29:46;26.50;1.00
1137;DHT22;557;48.466;7.950;2022-07-11T17:32:32;26.40;1.00
1137;DHT22;557;48.466;7.950;2022-07-11T17:35:18;26.20;1.00
1137;DHT22;557;48.466;7.950;2022-07-11T17:38:07;26.10;1.00
1137;DHT22;557;48.466;7.950;2022-07-11T17:40:53;26.00;1.00
1137;DHT22;557;48.466;7.950;2022-07-11T17:43:39;25.90;1.00
1137;DHT22;557;48.466;7.950;2022-07-11T17:46:25;25.80;1.00
1137;DHT22;557;48.466;7.950;2022-07-11T17:49:11;25.70;1.00
1137;DHT22;557;48.466;7.950;2022-07-11T17:51:57;25.50;1.00
1137;DHT22;557;48.466;7.950;2022-07-11T17:54:44;25.40;1.00
1137;DHT22;557;48.466;7.950;2022-07-11T17:57:30;25.30;1.00
1137;DHT22;557;48.466;7.950;2022-07-11T18:00:16;25.20;1.00
1137;DHT22;557;48.466;7.950;2022-07-11T18:03:03;25.10;1.00
1137;DHT22;557;48.466;7.950;2022-07-11T18:05:50;25.10;1.00
1137;DHT22;557;48.466;7.950;2022-07-11T18:08:35;25.00;1.00
1137;DHT22;557;48.466;7.950;2022-07-11T18:11:23;24.90;1.00
1137;DHT22;557;48.466;7.950;2022-07-11T18:14:09;24.80;1.00
1137;DHT22;557;48.466;7.950;2022-07-11T18:16:55;24.80;1.00
1137;DHT22;557;48.466;7.950;2022-07-11T18:19:43;24.70;1.00
1137;DHT22;557;48.466;7.950;2022-07-11T18:22:29;24.60;1.00
1137;DHT22;557;48.466;7.950;2022-07-11T18:25:15;24.60;1.00
1137;DHT22;557;48.466;7.950;2022-07-11T18:28:03;24.50;1.00
1137;DHT22;557;48.466;7.950;2022-07-11T18:30:49;24.50;1.00
1137;DHT22;557;48.466;7.950;2022-07-11T18:33:34;24.40;1.00
1137;DHT22;557;48.466;7.950;2022-07-11T18:36:26;24.30;1.00
1137;DHT22;557;48.466;7.950;2022-07-11T18:39:14;24.10;1.00
1137;DHT22;557;48.466;7.950;2022-07-11T18:42:17;24.10;1.00
1137;DHT22;557;48.466;7.950;2022-07-11T18:45:05;24.00;1.00